We konden geen weer-waarchuwingen ophalen. Ga rechtstreeks naar de Meteoalarm site : www.meteoalarm.eu en controleer daar .


Onweer radar Meer informatie blitzortung!


Regen radar Meer informatie rain snow radar



METAR rapporten vliegvelden

   
EHGR - Dalem
Gewijzigd: 18-04-2024 21:55
Bewolking  
Bewolking  
   Wind: ZW 1.5 m/s
Wind: ZW 1.5 m/s
Temperatuur: 7°C
Voelt als: 6°C
Dauwpunt: 3°C
Vochtigheid: 76%
Barometer: 1019 hPa
Bewolking: Bewolking
Zicht: meer dan 10 km
Bewolking: Bewolking 10000 ft
EHGR 181955Z AUTO 23003KT 9999 OVC100 07/03 Q1019 BLU NOSIG
EHGR - Roosendaal
Gewijzigd: 18-04-2024 21:55
Bewolking  
Bewolking  
   Wind: ZW 1.5 m/s
Wind: ZW 1.5 m/s
Temperatuur: 7°C
Voelt als: 6°C
Dauwpunt: 3°C
Vochtigheid: 76%
Barometer: 1019 hPa
Bewolking: Bewolking
Zicht: meer dan 10 km
Bewolking: Bewolking 10000 ft
EHGR 181955Z AUTO 23003KT 9999 OVC100 07/03 Q1019 BLU NOSIG
EHRD - Rotterdam
Gewijzigd: 18-04-2024 21:55
Gedeeltelijk bewolkt  
Gedeeltelijk bewolkt  
   Wind: ZW 4.6 m/s
Wind: ZW 4.6 m/s
Temperatuur: 8°C
Voelt als: 5°C
Dauwpunt: 3°C
Vochtigheid: 71%
Barometer: 1018 hPa
Bewolking: Gedeeltelijk bewolkt
Zicht: meer dan 10 km
Bewolking: Gedeeltelijk bewolkt
EHRD 181955Z AUTO 23009KT 190V250 9999 NSC 08/03 Q1018 NOSIG
EHLW - Urk
Gewijzigd: 18-04-2024 21:55
Grotendeels bewolkt  
Grotendeels bewolkt  
   Wind: WZW 5.7 m/s
Wind: WZW 5.7 m/s
Temperatuur: 8°C
Voelt als: 5°C
Dauwpunt: 4°C
Vochtigheid: 76%
Barometer: 1015 hPa
Bewolking: Grotendeels bewolkt
Zicht: meer dan 10 km
Bewolking: Gedeeltelijk bewolkt 6100 ft,
Grotendeels bewolkt 6700 ft,
Grotendeels bewolkt 8800 ft
EHLW 181955Z AUTO 24011KT 9999 SCT061 BKN067 BKN088 08/04 Q1015 BLU
EHDL - Veenendaal
Gewijzigd: 18-04-2024 21:55
Bewolking  
Bewolking  
   Wind: WZW 2.1 m/s
Wind: WZW 2.1 m/s
Temperatuur: 6°C
Voelt als: 4°C
Dauwpunt: 3°C
Vochtigheid: 81%
Barometer: 1018 hPa
Bewolking: Bewolking
Zicht: meer dan 10 km
Bewolking: Bewolking 10000 ft
EHDL 181955Z AUTO 24004KT 200V310 9999 OVC100 06/03 Q1018 BLU
EHRD - Vianen
Gewijzigd: 18-04-2024 21:55
Gedeeltelijk bewolkt  
Gedeeltelijk bewolkt  
   Wind: ZW 4.6 m/s
Wind: ZW 4.6 m/s
Temperatuur: 8°C
Voelt als: 5°C
Dauwpunt: 3°C
Vochtigheid: 71%
Barometer: 1018 hPa
Bewolking: Gedeeltelijk bewolkt
Zicht: meer dan 10 km
Bewolking: Gedeeltelijk bewolkt
EHRD 181955Z AUTO 23009KT 190V250 9999 NSC 08/03 Q1018 NOSIG

Script ontwikkeld door  Saratoga-weather.org Aangepast voor de template door  Weerstation Leuven

U vindt ons ook hier:

Het Weer Aktueel

UK Metoffice

European Weather Network

WeatherCloud

Weather Underground

AWEKAS

Citizen Weather Observer Program (CWOP)

HAMweather, WeatherForYou, PWS Weather

Apparatuur in gebruik:

Weerstation
Davis VP2 weatherstation

Weerprogramma
Meteobridge

Weercomputer
Asus WL_330N3G

Davis VP2 weatherstation

Meteobridge

Asus WL_330N3G